createdAt,value
2022-12-24T00:00:02.339Z,13.21
2022-12-24T00:02:28.740Z,12.87
2022-12-24T00:05:00.609Z,13.24
2022-12-24T00:07:27.689Z,13.17
2022-12-24T00:09:54.093Z,13.50
2022-12-24T00:12:20.464Z,13.32
2022-12-24T00:14:46.960Z,13.42
2022-12-24T00:17:13.552Z,12.95
2022-12-24T00:19:39.980Z,12.86
2022-12-24T00:22:06.310Z,13.14
2022-12-24T00:24:32.665Z,13.17
2022-12-24T00:26:59.089Z,13.14
2022-12-24T00:29:25.573Z,12.81
2022-12-24T00:31:52.057Z,13.30
2022-12-24T00:34:18.488Z,12.94
2022-12-24T00:36:44.908Z,13.14
2022-12-24T00:39:11.293Z,12.82
2022-12-24T00:41:37.675Z,13.04
2022-12-24T00:44:06.694Z,13.35
2022-12-24T00:46:34.349Z,13.11
2022-12-24T00:49:01.482Z,13.05
2022-12-24T00:51:28.490Z,12.77
2022-12-24T00:53:54.968Z,12.94
2022-12-24T00:56:21.572Z,12.96
2022-12-24T00:58:48.443Z,12.93
2022-12-24T01:01:15.419Z,12.50
2022-12-24T01:03:42.073Z,12.46
2022-12-24T01:06:21.198Z,13.00
2022-12-24T01:08:51.314Z,13.06
2022-12-24T01:11:18.118Z,12.72
2022-12-24T01:13:44.493Z,12.84
2022-12-24T01:16:19.745Z,13.05
2022-12-24T01:18:46.564Z,12.28
2022-12-24T01:21:12.939Z,13.03
2022-12-24T01:23:39.363Z,12.11
2022-12-24T01:26:05.853Z,12.45
2022-12-24T01:28:32.926Z,12.70
2022-12-24T01:30:59.513Z,12.43
2022-12-24T01:33:30.310Z,12.90
2022-12-24T01:35:56.758Z,12.69
2022-12-24T01:38:23.161Z,12.84
2022-12-24T01:41:08.306Z,12.53
2022-12-24T01:43:34.820Z,12.49
2022-12-24T01:46:11.933Z,12.67
2022-12-24T01:48:45.286Z,12.34
2022-12-24T01:51:26.839Z,13.04
2022-12-24T01:53:59.910Z,12.58
2022-12-24T01:56:28.788Z,12.76
2022-12-24T01:58:59.741Z,12.65
2022-12-24T02:01:28.601Z,12.48
2022-12-24T02:03:55.042Z,12.70
2022-12-24T02:06:22.414Z,13.15
2022-12-24T02:08:48.888Z,12.74
2022-12-24T02:11:22.040Z,13.21
2022-12-24T02:13:52.423Z,12.08
2022-12-24T02:16:40.441Z,13.07
2022-12-24T02:19:37.851Z,13.13
2022-12-24T02:22:10.223Z,12.51
2022-12-24T02:24:54.526Z,13.28
2022-12-24T02:27:34.553Z,13.17
2022-12-24T02:30:07.049Z,13.36
2022-12-24T02:32:36.319Z,13.11
2022-12-24T02:35:08.746Z,13.43
2022-12-24T02:37:43.871Z,12.95
2022-12-24T02:40:25.293Z,13.40
2022-12-24T02:42:57.710Z,13.45
2022-12-24T02:45:36.145Z,12.98
2022-12-24T02:48:02.881Z,12.77
2022-12-24T02:50:29.439Z,13.13
2022-12-24T02:52:55.870Z,12.95
2022-12-24T02:55:36.832Z,12.54
2022-12-24T02:58:09.317Z,13.20
2022-12-24T03:01:16.196Z,13.18
2022-12-24T03:04:04.558Z,13.29
2022-12-24T03:06:48.572Z,12.59
2022-12-24T03:09:25.457Z,13.03
2022-12-24T03:12:05.382Z,13.05
2022-12-24T03:14:34.668Z,13.06
2022-12-24T03:17:03.420Z,12.87
2022-12-24T03:19:31.458Z,13.12
2022-12-24T03:22:00.734Z,12.84
2022-12-24T03:24:27.154Z,12.95
2022-12-24T03:26:53.603Z,13.02
2022-12-24T03:29:20.339Z,13.13
2022-12-24T03:31:49.390Z,12.79
2022-12-24T03:34:16.973Z,13.12
2022-12-24T03:36:43.557Z,12.66
2022-12-24T03:39:10.395Z,12.79
2022-12-24T03:41:37.812Z,13.17
2022-12-24T03:44:04.836Z,12.88
2022-12-24T03:46:31.171Z,12.29
2022-12-24T03:48:58.218Z,12.61
2022-12-24T03:51:25.564Z,13.00
2022-12-24T03:53:53.383Z,13.18
2022-12-24T03:56:20.507Z,12.96
2022-12-24T03:58:47.296Z,12.66
2022-12-24T04:01:13.996Z,13.11
2022-12-24T04:03:40.410Z,12.76
2022-12-24T04:06:09.765Z,13.13
2022-12-24T04:08:37.083Z,12.92
2022-12-24T04:11:10.143Z,12.65
2022-12-24T04:13:37.357Z,13.12
2022-12-24T04:16:07.186Z,13.14
2022-12-24T04:18:34.535Z,12.71
2022-12-24T04:21:00.879Z,12.57
2022-12-24T04:23:30.015Z,12.80
2022-12-24T04:25:56.460Z,12.37
2022-12-24T04:28:22.807Z,12.69
2022-12-24T04:30:49.147Z,12.71
2022-12-24T04:33:15.764Z,12.11
2022-12-24T04:35:42.457Z,12.71
2022-12-24T04:38:09.921Z,13.02
2022-12-24T04:40:36.460Z,13.07
2022-12-24T04:43:02.822Z,12.45
2022-12-24T04:45:29.207Z,13.14
2022-12-24T04:47:55.570Z,12.81
2022-12-24T04:50:22.157Z,12.80
2022-12-24T04:52:48.646Z,12.36
2022-12-24T04:55:15.076Z,12.90
2022-12-24T04:57:41.762Z,12.92
2022-12-24T05:00:08.868Z,12.57
2022-12-24T05:02:35.343Z,13.01
2022-12-24T05:05:01.999Z,12.69
2022-12-24T05:07:28.421Z,12.91
2022-12-24T05:09:54.857Z,13.04
2022-12-24T05:12:23.429Z,13.16
2022-12-24T05:14:49.816Z,12.36
2022-12-24T05:17:16.204Z,12.36
2022-12-24T05:19:42.619Z,12.41
2022-12-24T05:22:27.691Z,13.20
2022-12-24T05:25:12.395Z,12.93
2022-12-24T05:27:38.767Z,12.63
2022-12-24T05:30:05.835Z,12.70
2022-12-24T05:32:32.319Z,12.56
2022-12-24T05:34:58.666Z,12.36
2022-12-24T05:37:25.002Z,13.19
2022-12-24T05:39:51.430Z,12.80
2022-12-24T05:42:17.845Z,13.13
2022-12-24T05:44:44.259Z,12.72
2022-12-24T05:47:10.727Z,12.39
2022-12-24T05:49:37.127Z,12.64
2022-12-24T05:52:04.463Z,12.80
2022-12-24T05:54:30.864Z,12.71
2022-12-24T05:56:57.218Z,12.58
2022-12-24T05:59:23.682Z,12.57
2022-12-24T06:01:50.199Z,12.87
2022-12-24T06:04:16.701Z,12.86
2022-12-24T06:06:43.372Z,12.48
2022-12-24T06:09:09.752Z,12.88
2022-12-24T06:11:36.094Z,13.10
2022-12-24T06:14:02.524Z,12.44
2022-12-24T06:16:28.913Z,13.20
2022-12-24T06:18:55.693Z,12.93
2022-12-24T06:21:22.528Z,13.31
2022-12-24T06:23:48.963Z,13.04
2022-12-24T06:26:20.544Z,13.30
2022-12-24T06:28:49.755Z,13.37
2022-12-24T06:31:18.670Z,12.85
2022-12-24T06:33:45.195Z,13.47
2022-12-24T06:36:18.152Z,13.35
2022-12-24T06:38:46.431Z,13.38
2022-12-24T06:41:13.120Z,13.23
2022-12-24T06:43:40.159Z,13.02
2022-12-24T06:46:06.631Z,13.14
2022-12-24T06:48:32.990Z,13.32
2022-12-24T06:51:02.349Z,12.70
2022-12-24T06:53:28.802Z,12.81
2022-12-24T06:56:03.438Z,12.86
2022-12-24T06:58:30.291Z,13.27
2022-12-24T07:00:57.016Z,13.34
2022-12-24T07:03:23.447Z,13.40
2022-12-24T07:05:49.854Z,13.34
2022-12-24T07:08:16.204Z,13.21
2022-12-24T07:10:42.566Z,13.00
2022-12-24T07:13:08.904Z,13.04
2022-12-24T07:15:35.367Z,13.42
2022-12-24T07:18:01.688Z,13.29
2022-12-24T07:20:28.056Z,12.72
2022-12-24T07:22:54.388Z,13.48
2022-12-24T07:25:20.743Z,13.29
2022-12-24T07:27:47.121Z,13.20
2022-12-24T07:30:15.893Z,13.63
2022-12-24T07:32:44.627Z,13.13
2022-12-24T07:35:11.117Z,13.33
2022-12-24T07:37:38.020Z,13.27
2022-12-24T07:40:07.978Z,13.16
2022-12-24T07:42:34.335Z,12.79
2022-12-24T07:45:02.599Z,13.28
2022-12-24T07:47:32.081Z,13.13
2022-12-24T07:49:58.445Z,13.25
2022-12-24T07:52:24.763Z,13.22
2022-12-24T07:54:51.240Z,13.48
2022-12-24T07:57:17.599Z,13.39
2022-12-24T07:59:43.950Z,12.96
2022-12-24T08:02:17.738Z,13.44
2022-12-24T08:04:44.736Z,13.39
2022-12-24T08:07:11.148Z,13.50
2022-12-24T08:09:39.622Z,13.17
2022-12-24T08:12:06.298Z,13.27
2022-12-24T08:14:32.720Z,13.04
2022-12-24T08:16:59.170Z,12.74
2022-12-24T08:19:25.509Z,12.62
2022-12-24T08:21:51.875Z,13.19
2022-12-24T08:24:18.189Z,13.18
2022-12-24T08:26:44.604Z,12.97
2022-12-24T08:29:11.772Z,13.23
2022-12-24T08:31:38.267Z,13.14
2022-12-24T08:34:06.397Z,13.48
2022-12-24T08:36:34.083Z,13.16
2022-12-24T08:39:03.436Z,12.98
2022-12-24T08:41:31.062Z,12.80
2022-12-24T08:43:57.465Z,13.23
2022-12-24T08:46:23.866Z,13.31
2022-12-24T08:48:50.300Z,13.06
2022-12-24T08:51:16.833Z,13.17
2022-12-24T08:53:43.164Z,13.22
2022-12-24T08:56:10.659Z,13.32
2022-12-24T08:58:37.195Z,13.16
2022-12-24T09:01:11.658Z,13.23
2022-12-24T09:03:38.197Z,12.22
2022-12-24T09:06:05.631Z,13.18
2022-12-24T09:08:33.091Z,13.17
2022-12-24T09:11:07.445Z,13.17
2022-12-24T09:13:33.827Z,13.44
2022-12-24T09:16:00.233Z,12.75
2022-12-24T09:18:26.961Z,13.07
2022-12-24T09:20:59.579Z,13.43
2022-12-24T09:23:26.001Z,13.21
2022-12-24T09:25:52.369Z,13.44
2022-12-24T09:28:18.891Z,13.46
2022-12-24T09:30:45.210Z,13.42
2022-12-24T09:33:12.003Z,13.37
2022-12-24T09:35:38.895Z,13.59
2022-12-24T09:38:05.266Z,13.19
2022-12-24T09:40:40.835Z,13.22
2022-12-24T09:43:16.968Z,13.57
2022-12-24T09:45:55.594Z,13.77
2022-12-24T09:48:28.207Z,13.82
2022-12-24T09:51:13.092Z,13.60
2022-12-24T09:53:49.833Z,13.91
2022-12-24T09:56:20.116Z,13.86
2022-12-24T09:58:55.502Z,13.18
2022-12-24T10:01:21.950Z,13.34
2022-12-24T10:03:48.594Z,13.88
2022-12-24T10:06:49.940Z,14.05
2022-12-24T10:09:43.122Z,13.76
2022-12-24T10:12:20.535Z,14.01
2022-12-24T10:15:14.213Z,13.42
2022-12-24T10:17:53.095Z,13.89
2022-12-24T10:20:54.077Z,13.98
2022-12-24T10:24:00.600Z,14.08
2022-12-24T10:26:35.504Z,13.62
2022-12-24T10:29:11.899Z,13.72
2022-12-24T10:31:50.041Z,14.16
2022-12-24T10:34:23.473Z,13.69
2022-12-24T10:36:49.891Z,13.36
2022-12-24T10:39:27.220Z,14.14
2022-12-24T10:41:57.593Z,13.97
2022-12-24T10:44:27.671Z,13.73
2022-12-24T10:46:54.545Z,13.70
2022-12-24T10:49:23.875Z,14.13
2022-12-24T10:51:55.187Z,13.79
2022-12-24T10:54:27.864Z,14.16
2022-12-24T10:56:59.969Z,14.35
2022-12-24T10:59:28.857Z,14.32
2022-12-24T11:01:57.563Z,14.40
2022-12-24T11:04:27.371Z,14.45
2022-12-24T11:07:01.390Z,14.56
2022-12-24T11:09:32.245Z,14.52
2022-12-24T11:12:05.378Z,14.65
2022-12-24T11:14:38.750Z,14.58
2022-12-24T11:17:05.829Z,14.15
2022-12-24T11:19:34.927Z,14.39
2022-12-24T11:22:04.584Z,14.83
2022-12-24T11:24:37.053Z,14.84
2022-12-24T11:27:23.297Z,15.30
2022-12-24T11:29:49.715Z,15.39
2022-12-24T11:32:41.518Z,15.00
2022-12-24T11:39:23.270Z,14.95
2022-12-24T11:42:02.631Z,14.97
2022-12-24T11:44:29.018Z,14.76
2022-12-24T11:50:41.916Z,14.75
2022-12-24T11:57:37.872Z,15.14
2022-12-24T12:00:30.561Z,14.63
2022-12-24T12:03:48.151Z,14.59
2022-12-24T12:06:31.339Z,14.70
2022-12-24T12:09:05.811Z,14.92
2022-12-24T12:11:35.427Z,14.17
2022-12-24T12:14:03.837Z,14.26
2022-12-24T12:17:05.377Z,15.11
2022-12-24T12:20:58.603Z,15.25
2022-12-24T12:23:32.865Z,15.29
2022-12-24T12:26:01.482Z,15.27
2022-12-24T12:28:42.977Z,15.59
2022-12-24T12:31:15.758Z,15.44
2022-12-24T12:34:11.260Z,15.16
2022-12-24T12:36:48.349Z,15.47
2022-12-24T12:39:15.189Z,15.55
2022-12-24T12:42:02.347Z,15.42
2022-12-24T12:44:38.291Z,14.98
2022-12-24T12:47:07.688Z,15.44
2022-12-24T12:49:40.195Z,14.84
2022-12-24T12:52:09.557Z,15.37
2022-12-24T12:55:06.312Z,15.12
2022-12-24T12:57:36.764Z,14.43
2022-12-24T13:00:09.696Z,14.82
2022-12-24T13:03:00.956Z,15.15
2022-12-24T13:05:51.845Z,15.12
2022-12-24T13:08:34.460Z,14.79
2022-12-24T13:11:11.023Z,14.88
2022-12-24T13:14:15.057Z,15.19
2022-12-24T13:17:17.793Z,14.55
2022-12-24T13:20:05.422Z,15.14
2022-12-24T13:22:31.859Z,14.61
2022-12-24T13:24:58.396Z,14.83
2022-12-24T13:27:27.465Z,14.67
2022-12-24T13:29:57.076Z,15.31
2022-12-24T13:32:23.917Z,15.31
2022-12-24T13:34:52.351Z,14.97
2022-12-24T13:37:39.033Z,14.48
2022-12-24T13:40:08.634Z,15.13
2022-12-24T13:43:04.638Z,15.26
2022-12-24T13:45:35.371Z,15.36
2022-12-24T13:48:28.153Z,15.39
2022-12-24T13:50:58.008Z,14.60
2022-12-24T13:53:33.028Z,15.26
2022-12-24T13:56:05.690Z,15.06
2022-12-24T13:58:33.428Z,15.07
2022-12-24T14:01:10.844Z,14.93
2022-12-24T14:03:45.004Z,14.94
2022-12-24T14:06:22.800Z,15.13
2022-12-24T14:08:53.228Z,14.72
2022-12-24T14:11:21.925Z,14.51
2022-12-24T14:13:48.324Z,14.95
2022-12-24T14:16:14.665Z,15.13
2022-12-24T14:18:48.870Z,15.32
2022-12-24T14:21:23.504Z,15.27
2022-12-24T14:24:06.791Z,15.47
2022-12-24T14:26:36.495Z,15.32
2022-12-24T14:29:21.283Z,14.85
2022-12-24T14:31:53.171Z,14.51
2022-12-24T14:34:19.886Z,14.68
2022-12-24T14:36:49.047Z,14.65
2022-12-24T14:39:26.279Z,15.01
2022-12-24T14:42:30.049Z,15.07
2022-12-24T14:45:07.472Z,14.89
2022-12-24T14:47:44.740Z,14.21
2022-12-24T14:50:26.734Z,14.95
2022-12-24T14:53:19.600Z,14.79
2022-12-24T14:55:48.412Z,14.65
2022-12-24T14:58:25.405Z,14.72
2022-12-24T15:00:54.209Z,14.61
2022-12-24T15:03:24.149Z,14.55
2022-12-24T15:05:54.342Z,14.27
2022-12-24T15:08:36.728Z,14.32
2022-12-24T15:11:07.078Z,14.25
2022-12-24T15:13:40.274Z,14.41
2022-12-24T15:16:12.906Z,14.33
2022-12-24T15:18:48.081Z,14.31
2022-12-24T15:21:19.740Z,13.62
2022-12-24T15:23:49.450Z,13.50
2022-12-24T15:26:44.691Z,13.77
2022-12-24T15:29:21.344Z,14.13
2022-12-24T15:31:59.665Z,13.76
2022-12-24T15:34:40.772Z,13.50
2022-12-24T15:37:23.764Z,13.84
2022-12-24T15:39:55.707Z,13.70
2022-12-24T15:42:24.052Z,13.46
2022-12-24T15:45:04.509Z,13.90
2022-12-24T15:47:38.251Z,13.20
2022-12-24T15:50:13.908Z,13.46
2022-12-24T15:52:41.529Z,13.62
2022-12-24T15:55:26.407Z,13.71
2022-12-24T15:57:52.823Z,13.49
2022-12-24T16:00:24.835Z,13.48
2022-12-24T16:02:51.851Z,13.36
2022-12-24T16:05:21.499Z,13.65
2022-12-24T16:08:09.585Z,13.56
2022-12-24T16:10:42.984Z,13.07
2022-12-24T16:13:17.950Z,13.46
2022-12-24T16:16:00.238Z,13.16
2022-12-24T16:18:33.677Z,12.77
2022-12-24T16:21:00.329Z,13.17
2022-12-24T16:23:37.156Z,13.23
2022-12-24T16:26:03.752Z,12.65
2022-12-24T16:28:31.340Z,13.10
2022-12-24T16:30:57.942Z,13.09
2022-12-24T16:33:24.427Z,13.00
2022-12-24T16:35:50.895Z,13.15
2022-12-24T16:38:17.253Z,13.10
2022-12-24T16:40:43.990Z,12.95
2022-12-24T16:43:29.484Z,13.02
2022-12-24T16:46:02.258Z,12.64
2022-12-24T16:48:29.809Z,12.17
2022-12-24T16:50:56.669Z,12.64
2022-12-24T16:53:23.393Z,11.76
2022-12-24T16:55:51.448Z,12.44
2022-12-24T16:58:18.427Z,12.67
2022-12-24T17:00:45.118Z,12.39
2022-12-24T17:03:12.605Z,12.48
2022-12-24T17:05:43.865Z,12.48
2022-12-24T17:08:10.809Z,12.54
2022-12-24T17:10:37.259Z,12.38
2022-12-24T17:13:04.432Z,12.43
2022-12-24T17:15:31.089Z,11.79
2022-12-24T17:17:57.751Z,12.17
2022-12-24T17:20:24.761Z,12.16
2022-12-24T17:22:51.483Z,12.44
2022-12-24T17:25:18.158Z,12.29
2022-12-24T17:27:44.573Z,12.29
2022-12-24T17:30:11.268Z,12.36
2022-12-24T17:32:37.733Z,12.01
2022-12-24T17:35:04.572Z,11.99
2022-12-24T17:37:30.939Z,11.53
2022-12-24T17:39:57.360Z,12.10
2022-12-24T17:42:23.791Z,12.15
2022-12-24T17:44:52.029Z,12.25
2022-12-24T17:47:19.410Z,12.01
2022-12-24T17:49:45.764Z,11.99
2022-12-24T17:52:12.201Z,11.40
2022-12-24T17:54:38.578Z,11.91
2022-12-24T17:57:04.974Z,11.74
2022-12-24T17:59:31.655Z,11.86
2022-12-24T18:01:58.069Z,11.29
2022-12-24T18:04:24.499Z,11.77
2022-12-24T18:06:53.894Z,11.78
2022-12-24T18:09:25.910Z,11.79
2022-12-24T18:11:52.272Z,11.51
2022-12-24T18:14:18.606Z,11.77
2022-12-24T18:16:48.875Z,11.73
2022-12-24T18:19:15.327Z,11.54
2022-12-24T18:21:41.702Z,11.55
2022-12-24T18:24:10.439Z,11.40
2022-12-24T18:26:36.791Z,11.44
2022-12-24T18:29:08.474Z,11.53
2022-12-24T18:31:35.773Z,11.57
2022-12-24T18:34:04.889Z,11.76
2022-12-24T18:36:32.468Z,11.73
2022-12-24T18:38:59.419Z,11.67
2022-12-24T18:41:28.264Z,11.11
2022-12-24T18:43:55.977Z,11.35
2022-12-24T18:46:25.543Z,11.53
2022-12-24T18:48:54.252Z,11.53
2022-12-24T18:51:22.894Z,11.12
2022-12-24T18:53:50.070Z,11.67
2022-12-24T18:56:22.278Z,11.60
2022-12-24T18:58:52.078Z,11.71
2022-12-24T19:01:24.977Z,11.51
2022-12-24T19:03:51.936Z,11.30
2022-12-24T19:06:19.696Z,11.36
2022-12-24T19:09:02.228Z,11.50
2022-12-24T19:11:31.265Z,11.83
2022-12-24T19:13:58.521Z,11.63
2022-12-24T19:16:25.991Z,11.79
2022-12-24T19:18:52.641Z,11.56
2022-12-24T19:21:19.147Z,11.98
2022-12-24T19:23:45.820Z,12.11
2022-12-24T19:26:13.490Z,11.66
2022-12-24T19:28:40.388Z,12.09
2022-12-24T19:31:13.574Z,12.20
2022-12-24T19:33:43.507Z,11.57
2022-12-24T19:36:13.885Z,11.96
2022-12-24T19:38:41.175Z,11.75
2022-12-24T19:41:13.518Z,12.32
2022-12-24T19:43:41.953Z,12.29
2022-12-24T19:46:14.525Z,12.41
2022-12-24T19:48:42.324Z,12.40
2022-12-24T19:51:11.836Z,12.06
2022-12-24T19:53:39.556Z,12.22
2022-12-24T19:56:06.590Z,12.34
2022-12-24T19:58:32.981Z,12.21
2022-12-24T20:01:14.568Z,12.43
2022-12-24T20:03:42.270Z,12.33
2022-12-24T20:06:09.013Z,12.20
2022-12-24T20:08:37.148Z,12.48
2022-12-24T20:11:09.583Z,11.82
2022-12-24T20:13:38.258Z,12.44
2022-12-24T20:16:13.169Z,12.45
2022-12-24T20:18:40.329Z,12.43
2022-12-24T20:21:09.507Z,12.23
2022-12-24T20:23:41.777Z,12.46
2022-12-24T20:26:12.175Z,12.44
2022-12-24T20:28:39.466Z,11.76
2022-12-24T20:31:14.465Z,12.23
2022-12-24T20:33:42.464Z,11.78
2022-12-24T20:36:10.174Z,12.38
2022-12-24T20:38:38.378Z,12.05
2022-12-24T20:41:05.699Z,12.28
2022-12-24T20:43:37.169Z,12.12
2022-12-24T20:46:04.427Z,12.11
2022-12-24T20:48:31.433Z,11.63
2022-12-24T20:50:58.101Z,12.06
2022-12-24T20:53:25.167Z,12.14
2022-12-24T20:55:53.115Z,11.99
2022-12-24T20:58:20.584Z,11.82
2022-12-24T21:00:47.989Z,12.22
2022-12-24T21:03:15.847Z,12.03
2022-12-24T21:05:43.228Z,12.22
2022-12-24T21:08:10.848Z,12.14
2022-12-24T21:10:38.104Z,12.19
2022-12-24T21:13:04.919Z,11.97
2022-12-24T21:15:34.977Z,12.10
2022-12-24T21:18:09.892Z,12.09
2022-12-24T21:20:37.065Z,12.06
2022-12-24T21:23:03.619Z,12.06
2022-12-24T21:25:30.057Z,11.51
2022-12-24T21:27:56.542Z,12.10
2022-12-24T21:30:23.513Z,12.30
2022-12-24T21:32:50.550Z,12.18
2022-12-24T21:35:17.226Z,12.12
2022-12-24T21:37:43.693Z,12.04
2022-12-24T21:40:10.772Z,12.24
2022-12-24T21:42:37.648Z,12.14
2022-12-24T21:45:05.052Z,11.64
2022-12-24T21:47:31.402Z,11.58
2022-12-24T21:50:16.391Z,12.13
2022-12-24T21:52:42.783Z,12.10
2022-12-24T21:55:09.212Z,12.04
2022-12-24T21:57:53.828Z,12.02
2022-12-24T22:00:24.337Z,12.17
2022-12-24T22:02:53.868Z,11.97
2022-12-24T22:05:21.376Z,11.95
2022-12-24T22:08:07.215Z,12.18
2022-12-24T22:10:51.989Z,12.14
2022-12-24T22:13:21.493Z,12.03
2022-12-24T22:15:49.883Z,11.61
2022-12-24T22:18:18.288Z,11.91
2022-12-24T22:20:46.392Z,11.82
2022-12-24T22:23:14.483Z,11.89
2022-12-24T22:25:41.928Z,11.44
2022-12-24T22:28:08.330Z,11.41
2022-12-24T22:30:39.751Z,11.75
2022-12-24T22:33:07.366Z,11.84
2022-12-24T22:35:36.684Z,11.27
2022-12-24T22:38:03.262Z,11.88
2022-12-24T22:40:29.810Z,11.73
2022-12-24T22:42:56.234Z,11.70
2022-12-24T22:45:23.056Z,11.48
2022-12-24T22:47:49.590Z,11.75
2022-12-24T22:50:16.978Z,11.70
2022-12-24T22:52:43.373Z,11.56
2022-12-24T22:55:10.042Z,11.63
2022-12-24T22:57:36.443Z,11.04
2022-12-24T23:00:13.175Z,11.46
2022-12-24T23:02:39.683Z,11.13
2022-12-24T23:05:06.454Z,11.81
2022-12-24T23:07:32.841Z,11.45
2022-12-24T23:09:59.704Z,11.60
2022-12-24T23:12:44.787Z,11.38
2022-12-24T23:15:11.649Z,11.43
2022-12-24T23:17:38.057Z,10.92
2022-12-24T23:20:04.900Z,11.69
2022-12-24T23:22:31.355Z,11.54
2022-12-24T23:24:57.850Z,11.60
2022-12-24T23:27:24.556Z,11.39
2022-12-24T23:29:50.953Z,11.47
2022-12-24T23:32:17.291Z,10.59
2022-12-24T23:34:43.742Z,11.53
2022-12-24T23:37:10.181Z,11.48
2022-12-24T23:39:36.522Z,11.51
2022-12-24T23:42:02.948Z,11.01
2022-12-24T23:44:32.497Z,11.39
2022-12-24T23:46:59.409Z,11.31
2022-12-24T23:49:26.682Z,10.89
2022-12-24T23:51:53.084Z,11.07
2022-12-24T23:54:19.471Z,11.32
2022-12-24T23:56:45.824Z,11.12
2022-12-24T23:59:12.172Z,11.26
